Time;durP1;ratioP1;P1;durP2;ratioP2;P2;SDS_P1;SDS_P2;PMS_P1;PMS_P2;Temp;Humidity;BMP_temperature;BMP_pressure;BME280_temperature;BME280_humidity;BME280_pressure;Samples;Min_cycle;Max_cycle;Signal;HPM_P1;HPM_P2
2023/06/29 00:00:21;;;;;;;0.10;0.10;;;;;;;;;;4986615;28;20474;-51
2023/06/29 00:02:47;;;;;;;0.10;0.10;;;;;;;;;;4986873;28;20456;-51
2023/06/29 00:05:12;;;;;;;0.10;0.10;;;;;;;;;;4986449;28;20046;-52
2023/06/29 00:07:38;;;;;;;0.10;0.10;;;;;;;;;;4978778;28;20407;-52
2023/06/29 00:10:04;;;;;;;0.10;0.10;;;;;;;;;;4985168;28;20163;-53
2023/06/29 00:12:30;;;;;;;0.10;0.10;;;;;;;;;;4987131;28;20066;-52
2023/06/29 00:14:55;;;;;;;0.10;0.10;;;;;;;;;;4987001;28;20051;-52
2023/06/29 00:17:21;;;;;;;0.10;0.10;;;;;;;;;;4987013;28;20261;-52
2023/06/29 00:19:47;;;;;;;0.10;0.10;;;;;;;;;;4985879;28;20331;-53
2023/06/29 00:22:13;;;;;;;0.10;0.10;;;;;;;;;;4988483;28;20058;-52
2023/06/29 00:24:43;;;;;;;0.10;0.10;;;;;;;;;;4988555;28;20053;-52
2023/06/29 00:27:10;;;;;;;0.10;0.10;;;;;;;;;;4990371;28;20069;-52
2023/06/29 00:29:36;;;;;;;0.10;0.10;;;;;;;;;;4989954;28;20046;-52
2023/06/29 00:32:02;;;;;;;0.10;0.10;;;;;;;;;;4989853;28;20053;-52
2023/06/29 00:34:27;;;;;;;0.10;0.10;;;;;;;;;;4988842;28;20050;-52
2023/06/29 00:36:53;;;;;;;0.10;0.10;;;;;;;;;;4990159;28;20486;-53
2023/06/29 00:39:18;;;;;;;0.10;0.10;;;;;;;;;;4988848;28;20148;-52
2023/06/29 00:41:50;;;;;;;0.10;0.10;;;;;;;;;;4989660;28;20050;-52
2023/06/29 00:44:16;;;;;;;0.10;0.10;;;;;;;;;;4990093;28;20082;-52
2023/06/29 00:46:42;;;;;;;0.10;0.10;;;;;;;;;;4990041;28;20074;-52
2023/06/29 00:49:07;;;;;;;0.10;0.10;;;;;;;;;;4989688;28;20534;-52
2023/06/29 00:51:33;;;;;;;0.10;0.10;;;;;;;;;;4989774;28;20077;-52
2023/06/29 00:53:59;;;;;;;0.10;0.10;;;;;;;;;;4989433;28;20129;-52
2023/06/29 00:56:25;;;;;;;0.10;0.10;;;;;;;;;;4989116;28;20064;-53
2023/06/29 00:58:50;;;;;;;0.10;0.10;;;;;;;;;;4989582;28;20503;-51
2023/06/29 01:01:16;;;;;;;0.10;0.10;;;;;;;;;;4988931;28;20051;-52
2023/06/29 01:03:42;;;;;;;0.10;0.10;;;;;;;;;;4989307;28;20065;-52
2023/06/29 01:06:09;;;;;;;0.10;0.10;;;;;;;;;;4989338;28;20054;-53
2023/06/29 01:08:39;;;;;;;0.10;0.10;;;;;;;;;;4989153;28;20073;-48
2023/06/29 01:11:05;;;;;;;0.10;0.10;;;;;;;;;;4989152;28;20851;-51
2023/06/29 01:13:31;;;;;;;0.10;0.10;;;;;;;;;;4989997;28;20046;-52
2023/06/29 01:15:57;;;;;;;0.10;0.10;;;;;;;;;;4989144;28;20459;-51
2023/06/29 01:18:23;;;;;;;0.10;0.10;;;;;;;;;;4989248;28;20574;-52
2023/06/29 01:20:49;;;;;;;0.10;0.10;;;;;;;;;;4989246;28;20054;-52
2023/06/29 01:23:24;;;;;;;0.10;0.10;;;;;;;;;;4988785;28;20060;-52
2023/06/29 01:25:50;;;;;;;0.10;0.10;;;;;;;;;;4987210;28;20148;-52
2023/06/29 01:28:16;;;;;;;0.10;0.10;;;;;;;;;;4989156;28;20248;-52
2023/06/29 01:30:48;;;;;;;0.10;0.10;;;;;;;;;;4988769;28;20046;-52
2023/06/29 01:33:18;;;;;;;0.10;0.10;;;;;;;;;;4987759;28;20053;-51
2023/06/29 01:35:44;;;;;;;0.10;0.10;;;;;;;;;;4989263;28;20069;-52
2023/06/29 01:38:11;;;;;;;0.10;0.10;;;;;;;;;;4989124;28;20530;-51
2023/06/29 01:40:38;;;;;;;0.10;0.10;;;;;;;;;;4986740;28;20077;-53
2023/06/29 01:43:04;;;;;;;0.10;0.10;;;;;;;;;;4969736;28;20075;-52
2023/06/29 01:45:30;;;;;;;0.10;0.10;;;;;;;;;;4969755;28;20408;-52
2023/06/29 01:47:55;;;;;;;0.10;0.10;;;;;;;;;;4969866;28;20062;-52
2023/06/29 01:50:21;;;;;;;0.10;0.10;;;;;;;;;;4976078;28;20407;-52
2023/06/29 01:52:46;;;;;;;0.10;0.10;;;;;;;;;;4989396;28;20180;-50
2023/06/29 01:55:12;;;;;;;0.10;0.10;;;;;;;;;;4989039;28;20235;-52
2023/06/29 01:57:37;;;;;;;0.10;0.10;;;;;;;;;;4988276;28;20046;-52
2023/06/29 02:00:03;;;;;;;0.10;0.10;;;;;;;;;;4987918;28;20346;-53
2023/06/29 02:02:29;;;;;;;0.10;0.10;;;;;;;;;;4988692;28;20318;-52
2023/06/29 02:04:55;;;;;;;0.10;0.10;;;;;;;;;;4988664;28;20146;-51
2023/06/29 02:07:21;;;;;;;0.10;0.10;;;;;;;;;;4988406;28;20043;-53
2023/06/29 02:09:46;;;;;;;0.10;0.10;;;;;;;;;;4987870;28;20500;-52
2023/06/29 02:12:12;;;;;;;0.10;0.10;;;;;;;;;;4988761;28;20152;-51
2023/06/29 02:14:38;;;;;;;0.10;0.10;;;;;;;;;;4987159;28;20050;-52
2023/06/29 02:17:03;;;;;;;0.10;0.10;;;;;;;;;;4988518;28;20521;-52
2023/06/29 02:19:29;;;;;;;0.10;0.10;;;;;;;;;;4988360;28;20533;-52
2023/06/29 02:21:54;;;;;;;0.10;0.10;;;;;;;;;;4988087;28;20046;-50
2023/06/29 02:24:20;;;;;;;0.10;0.10;;;;;;;;;;4988117;28;20049;-52
2023/06/29 02:26:45;;;;;;;0.10;0.10;;;;;;;;;;4988333;28;20057;-52
2023/06/29 02:29:11;;;;;;;0.10;0.10;;;;;;;;;;4988333;28;20054;-52
2023/06/29 02:31:36;;;;;;;0.10;0.10;;;;;;;;;;4987641;28;20050;-52
2023/06/29 02:34:02;;;;;;;0.10;0.10;;;;;;;;;;4988597;28;20411;-53
2023/06/29 02:36:27;;;;;;;0.10;0.10;;;;;;;;;;4988146;28;20060;-52
2023/06/29 02:38:53;;;;;;;0.10;0.10;;;;;;;;;;4987781;28;20052;-53
2023/06/29 02:41:18;;;;;;;0.10;0.10;;;;;;;;;;4988128;28;20050;-52
2023/06/29 02:43:44;;;;;;;0.10;0.10;;;;;;;;;;4987512;28;20046;-51
2023/06/29 02:46:09;;;;;;;0.10;0.10;;;;;;;;;;4988017;28;20061;-60
2023/06/29 02:48:35;;;;;;;0.10;0.10;;;;;;;;;;4987758;28;20842;-61
2023/06/29 02:51:00;;;;;;;0.10;0.10;;;;;;;;;;4987541;28;20053;-60
2023/06/29 02:53:26;;;;;;;0.10;0.10;;;;;;;;;;4987762;28;20415;-60
2023/06/29 02:55:52;;;;;;;0.10;0.10;;;;;;;;;;4988085;28;20050;-60
2023/06/29 02:58:17;;;;;;;0.10;0.10;;;;;;;;;;4987813;28;20057;-60
2023/06/29 03:00:43;;;;;;;0.10;0.10;;;;;;;;;;4987165;28;20100;-60
2023/06/29 03:03:08;;;;;;;0.10;0.10;;;;;;;;;;4987920;28;20077;-60
2023/06/29 03:05:34;;;;;;;0.10;0.10;;;;;;;;;;4979179;28;20415;-60
2023/06/29 03:07:59;;;;;;;0.10;0.10;;;;;;;;;;4968470;28;20061;-61
2023/06/29 03:10:25;;;;;;;0.10;0.10;;;;;;;;;;4974661;28;20145;-60
2023/06/29 03:12:50;;;;;;;0.10;0.10;;;;;;;;;;4987842;28;20301;-61
2023/06/29 03:15:16;;;;;;;0.10;0.10;;;;;;;;;;4987744;28;20049;-60
2023/06/29 03:17:41;;;;;;;0.10;0.10;;;;;;;;;;4987414;28;20054;-60
2023/06/29 03:20:07;;;;;;;0.10;0.10;;;;;;;;;;4987202;28;20108;-60
2023/06/29 03:22:33;;;;;;;0.10;0.10;;;;;;;;;;4987483;28;20480;-60
2023/06/29 03:24:58;;;;;;;0.10;0.10;;;;;;;;;;4985784;28;20048;-60
2023/06/29 03:27:24;;;;;;;0.10;0.10;;;;;;;;;;4987394;28;20388;-60
2023/06/29 03:29:51;;;;;;;0.10;0.10;;;;;;;;;;4986587;28;20050;-60
2023/06/29 03:32:17;;;;;;;0.00;0.00;;;;;;;;;;4987583;28;20043;-60
2023/06/29 03:34:42;;;;;;;0.10;0.10;;;;;;;;;;4987817;28;20479;-60
2023/06/29 03:37:08;;;;;;;0.10;0.10;;;;;;;;;;4986899;28;20042;-60
2023/06/29 03:39:33;;;;;;;0.10;0.10;;;;;;;;;;4986407;28;20050;-60
2023/06/29 03:41:59;;;;;;;0.10;0.10;;;;;;;;;;4986665;28;20096;-60
2023/06/29 03:44:24;;;;;;;0.10;0.10;;;;;;;;;;4986633;28;20058;-60
2023/06/29 03:46:50;;;;;;;0.10;0.10;;;;;;;;;;4987602;28;20051;-60
2023/06/29 03:49:15;;;;;;;0.10;0.10;;;;;;;;;;4987190;28;20129;-60
2023/06/29 03:51:41;;;;;;;0.10;0.10;;;;;;;;;;4986888;28;20109;-60
2023/06/29 03:54:07;;;;;;;0.10;0.10;;;;;;;;;;4987841;28;20058;-60
2023/06/29 03:56:33;;;;;;;0.10;0.10;;;;;;;;;;4988427;28;20054;-60
2023/06/29 03:58:58;;;;;;;0.10;0.10;;;;;;;;;;4990714;28;20054;-60
2023/06/29 04:01:24;;;;;;;0.10;0.10;;;;;;;;;;4990133;28;20061;-60
2023/06/29 04:03:50;;;;;;;0.10;0.10;;;;;;;;;;4990351;28;20153;-60
2023/06/29 04:06:15;;;;;;;0.10;0.10;;;;;;;;;;4990703;28;20136;-60
2023/06/29 04:08:41;;;;;;;0.10;0.10;;;;;;;;;;4990190;28;20051;-60
2023/06/29 04:11:06;;;;;;;0.10;0.10;;;;;;;;;;4988499;28;20077;-60
2023/06/29 04:13:32;;;;;;;0.10;0.10;;;;;;;;;;4990617;28;20050;-60
2023/06/29 04:15:57;;;;;;;0.10;0.10;;;;;;;;;;4990458;28;20058;-58
2023/06/29 04:18:23;;;;;;;0.10;0.10;;;;;;;;;;4990483;28;20053;-60
2023/06/29 04:20:48;;;;;;;0.10;0.10;;;;;;;;;;4989819;28;20081;-60
2023/06/29 04:23:15;;;;;;;0.10;0.10;;;;;;;;;;4990305;28;20478;-60
2023/06/29 04:25:42;;;;;;;0.10;0.10;;;;;;;;;;4990351;28;20326;-60
2023/06/29 04:28:09;;;;;;;0.10;0.10;;;;;;;;;;4988197;28;20050;-61
2023/06/29 04:30:36;;;;;;;0.10;0.10;;;;;;;;;;4987666;28;20061;-61
2023/06/29 04:33:09;;;;;;;0.10;0.10;;;;;;;;;;4990039;28;20517;-60
2023/06/29 04:35:35;;;;;;;0.10;0.10;;;;;;;;;;4990106;28;20070;-60
2023/06/29 04:38:01;;;;;;;0.10;0.10;;;;;;;;;;4989246;28;20058;-60
2023/06/29 04:40:26;;;;;;;0.10;0.10;;;;;;;;;;4988757;28;20667;-61
2023/06/29 04:42:55;;;;;;;0.10;0.10;;;;;;;;;;4989783;28;20334;-60
2023/06/29 04:45:24;;;;;;;0.10;0.10;;;;;;;;;;4988967;28;20050;-60
2023/06/29 04:47:50;;;;;;;0.10;0.10;;;;;;;;;;4989432;28;20109;-60
2023/06/29 04:50:16;;;;;;;0.10;0.10;;;;;;;;;;4989215;28;20050;-60
2023/06/29 04:52:42;;;;;;;0.10;0.10;;;;;;;;;;4989772;28;20199;-60
2023/06/29 04:55:08;;;;;;;0.10;0.10;;;;;;;;;;4989847;28;20503;-60
2023/06/29 04:57:34;;;;;;;0.10;0.10;;;;;;;;;;4988949;28;20043;-60
2023/06/29 05:00:00;;;;;;;0.10;0.10;;;;;;;;;;4989057;28;20293;-60
2023/06/29 05:02:25;;;;;;;0.10;0.10;;;;;;;;;;4989063;28;20081;-60
2023/06/29 05:04:51;;;;;;;0.10;0.10;;;;;;;;;;4968422;28;20078;-60
2023/06/29 05:07:16;;;;;;;0.10;0.10;;;;;;;;;;4950618;28;20057;-60
2023/06/29 05:09:42;;;;;;;0.10;0.10;;;;;;;;;;4952261;28;20082;-61
2023/06/29 05:12:08;;;;;;;0.10;0.10;;;;;;;;;;4989902;28;20062;-60
2023/06/29 05:14:34;;;;;;;0.10;0.10;;;;;;;;;;4989400;28;20141;-59
2023/06/29 05:16:59;;;;;;;0.10;0.10;;;;;;;;;;4984528;28;20047;-60
2023/06/29 05:19:25;;;;;;;0.10;0.10;;;;;;;;;;4969926;28;20058;-60
2023/06/29 05:21:50;;;;;;;0.10;0.10;;;;;;;;;;4988347;28;20064;-60
2023/06/29 05:24:16;;;;;;;0.00;0.00;;;;;;;;;;4989347;28;20136;-60
2023/06/29 05:26:44;;;;;;;0.10;0.10;;;;;;;;;;4989628;28;20141;-60
2023/06/29 05:29:10;;;;;;;0.00;0.00;;;;;;;;;;4988598;28;20399;-60
2023/06/29 05:31:35;;;;;;;0.10;0.10;;;;;;;;;;4988961;28;20549;-60
2023/06/29 05:34:01;;;;;;;0.10;0.10;;;;;;;;;;4988986;28;20097;-61
2023/06/29 05:36:27;;;;;;;0.10;0.10;;;;;;;;;;4989535;28;20046;-60
2023/06/29 05:38:52;;;;;;;0.10;0.10;;;;;;;;;;4988769;28;20320;-60
2023/06/29 05:41:18;;;;;;;0.10;0.10;;;;;;;;;;4988501;28;20073;-60
2023/06/29 05:43:43;;;;;;;0.10;0.10;;;;;;;;;;4989242;28;20491;-61
2023/06/29 05:46:09;;;;;;;0.10;0.10;;;;;;;;;;4988695;28;20058;-60
2023/06/29 05:48:34;;;;;;;0.10;0.10;;;;;;;;;;4988076;28;20054;-60
2023/06/29 05:51:00;;;;;;;0.10;0.10;;;;;;;;;;4987978;28;20133;-60
2023/06/29 05:53:25;;;;;;;0.10;0.10;;;;;;;;;;4988610;28;20403;-60
2023/06/29 05:55:51;;;;;;;0.10;0.10;;;;;;;;;;4988708;28;20137;-60
2023/06/29 05:58:16;;;;;;;0.10;0.10;;;;;;;;;;4988454;28;20474;-60
2023/06/29 06:00:42;;;;;;;0.10;0.10;;;;;;;;;;4987911;28;20050;-61
2023/06/29 06:03:08;;;;;;;0.10;0.10;;;;;;;;;;4986812;28;20066;-60
2023/06/29 06:05:33;;;;;;;0.10;0.10;;;;;;;;;;4987660;28;20427;-61
2023/06/29 06:07:59;;;;;;;0.10;0.10;;;;;;;;;;4988335;28;20050;-60
2023/06/29 06:10:24;;;;;;;0.10;0.10;;;;;;;;;;4987613;28;20466;-60
2023/06/29 06:12:50;;;;;;;0.10;0.10;;;;;;;;;;4988392;28;20455;-61
2023/06/29 06:15:15;;;;;;;0.10;0.10;;;;;;;;;;4987869;28;20270;-59
2023/06/29 06:17:41;;;;;;;0.10;0.10;;;;;;;;;;4988278;28;20061;-60
2023/06/29 06:20:08;;;;;;;0.10;0.10;;;;;;;;;;4986952;28;20137;-61
2023/06/29 06:22:33;;;;;;;0.10;0.10;;;;;;;;;;4987256;28;20050;-60
2023/06/29 06:24:59;;;;;;;0.10;0.10;;;;;;;;;;4987545;28;20471;-61
2023/06/29 06:27:24;;;;;;;0.10;0.10;;;;;;;;;;4987476;28;20057;-60
2023/06/29 06:29:50;;;;;;;0.10;0.10;;;;;;;;;;4986779;28;20058;-61
2023/06/29 06:32:16;;;;;;;0.10;0.10;;;;;;;;;;4987236;28;20046;-60
2023/06/29 06:34:43;;;;;;;0.10;0.10;;;;;;;;;;4986693;28;20109;-60
2023/06/29 06:37:09;;;;;;;0.10;0.10;;;;;;;;;;4987612;28;20082;-61
2023/06/29 06:39:34;;;;;;;0.10;0.10;;;;;;;;;;4986349;28;20120;-60
2023/06/29 06:42:00;;;;;;;0.10;0.10;;;;;;;;;;4987080;28;20542;-61
2023/06/29 06:44:26;;;;;;;0.10;0.10;;;;;;;;;;4987292;28;20062;-60
2023/06/29 06:46:51;;;;;;;0.10;0.10;;;;;;;;;;4987441;28;20081;-59
2023/06/29 06:49:17;;;;;;;0.10;0.10;;;;;;;;;;4987015;28;20085;-60
2023/06/29 06:51:42;;;;;;;0.10;0.10;;;;;;;;;;4986984;28;20171;-61
2023/06/29 06:54:08;;;;;;;0.10;0.10;;;;;;;;;;4987019;28;20058;-60
2023/06/29 06:56:33;;;;;;;0.10;0.10;;;;;;;;;;4987214;28;20086;-60
2023/06/29 06:58:59;;;;;;;0.10;0.10;;;;;;;;;;4987116;28;20495;-60
2023/06/29 07:01:25;;;;;;;0.10;0.10;;;;;;;;;;4986805;28;20057;-60
2023/06/29 07:03:51;;;;;;;0.10;0.10;;;;;;;;;;4971553;28;20456;-60
2023/06/29 07:06:17;;;;;;;0.10;0.10;;;;;;;;;;4986067;28;20058;-60
2023/06/29 07:08:43;;;;;;;0.10;0.10;;;;;;;;;;4986637;28;20099;-60
2023/06/29 07:11:09;;;;;;;0.10;0.10;;;;;;;;;;4985587;28;20104;-60
2023/06/29 07:13:34;;;;;;;0.10;0.10;;;;;;;;;;4987471;28;20050;-60
2023/06/29 07:16:00;;;;;;;0.10;0.10;;;;;;;;;;4987239;28;20050;-60
2023/06/29 07:18:25;;;;;;;0.10;0.10;;;;;;;;;;4985542;28;20108;-60
2023/06/29 07:20:51;;;;;;;0.10;0.10;;;;;;;;;;4986629;28;20157;-60
2023/06/29 07:23:19;;;;;;;0.10;0.10;;;;;;;;;;4987159;28;20058;-60
2023/06/29 07:25:50;;;;;;;0.10;0.10;;;;;;;;;;4986467;28;20054;-60
2023/06/29 07:28:15;;;;;;;0.10;0.10;;;;;;;;;;4986873;28;20254;-61
2023/06/29 07:30:41;;;;;;;0.10;0.10;;;;;;;;;;4986537;28;20124;-60
2023/06/29 07:33:07;;;;;;;0.10;0.10;;;;;;;;;;4990101;28;20046;-60
2023/06/29 07:35:32;;;;;;;0.10;0.10;;;;;;;;;;4990176;28;20138;-60
2023/06/29 07:37:58;;;;;;;0.10;0.10;;;;;;;;;;4990265;28;20054;-60
2023/06/29 07:40:24;;;;;;;0.10;0.10;;;;;;;;;;4989442;28;20047;-61
2023/06/29 07:42:49;;;;;;;0.10;0.10;;;;;;;;;;4990503;28;20046;-60
2023/06/29 07:45:15;;;;;;;0.10;0.10;;;;;;;;;;4989611;28;20255;-60
2023/06/29 07:47:41;;;;;;;0.10;0.10;;;;;;;;;;4990382;28;20125;-60
2023/06/29 07:50:07;;;;;;;0.10;0.10;;;;;;;;;;4988582;28;20487;-60
2023/06/29 07:52:33;;;;;;;0.10;0.10;;;;;;;;;;4989985;28;20051;-60
2023/06/29 07:54:58;;;;;;;0.10;0.10;;;;;;;;;;4990378;28;20113;-60
2023/06/29 07:57:24;;;;;;;0.10;0.10;;;;;;;;;;4989989;28;20463;-60
2023/06/29 07:59:52;;;;;;;0.10;0.10;;;;;;;;;;4989444;28;20069;-60
2023/06/29 08:02:18;;;;;;;0.10;0.10;;;;;;;;;;4984276;28;20051;-60
2023/06/29 08:04:43;;;;;;;0.10;0.10;;;;;;;;;;4987787;28;20054;-61
2023/06/29 08:07:12;;;;;;;0.10;0.10;;;;;;;;;;4990119;28;20058;-61
2023/06/29 08:09:38;;;;;;;0.10;0.10;;;;;;;;;;4988738;28;20061;-61
2023/06/29 08:12:04;;;;;;;0.10;0.10;;;;;;;;;;4989276;28;20054;-61
2023/06/29 08:14:32;;;;;;;0.10;0.10;;;;;;;;;;4990048;28;20064;-61
2023/06/29 08:16:57;;;;;;;0.10;0.10;;;;;;;;;;4990226;28;20133;-60
2023/06/29 08:19:23;;;;;;;0.10;0.10;;;;;;;;;;4989182;28;20050;-60
2023/06/29 08:21:48;;;;;;;0.10;0.10;;;;;;;;;;4989614;28;20046;-60
2023/06/29 08:24:14;;;;;;;0.10;0.10;;;;;;;;;;4989725;28;20499;-60
2023/06/29 08:26:42;;;;;;;0.10;0.10;;;;;;;;;;4989804;28;20053;-61
2023/06/29 08:29:08;;;;;;;0.10;0.10;;;;;;;;;;4989578;28;20062;-60
2023/06/29 08:31:34;;;;;;;0.10;0.10;;;;;;;;;;4988532;28;20049;-60
2023/06/29 08:33:59;;;;;;;0.10;0.10;;;;;;;;;;4989487;28;20147;-60
2023/06/29 08:36:28;;;;;;;0.10;0.10;;;;;;;;;;4989593;28;20058;-61
2023/06/29 08:38:53;;;;;;;0.10;0.10;;;;;;;;;;4988474;28;20161;-61
2023/06/29 08:41:19;;;;;;;0.10;0.10;;;;;;;;;;4989696;28;20391;-60
2023/06/29 08:43:44;;;;;;;0.10;0.10;;;;;;;;;;4989526;28;20055;-61
2023/06/29 08:46:10;;;;;;;0.10;0.10;;;;;;;;;;4989083;28;20403;-60
2023/06/29 08:48:36;;;;;;;0.10;0.10;;;;;;;;;;4989762;28;20101;-60
2023/06/29 08:51:06;;;;;;;0.10;0.10;;;;;;;;;;4989055;28;20054;-60
2023/06/29 08:53:32;;;;;;;0.10;0.10;;;;;;;;;;4989607;28;20082;-60
2023/06/29 08:55:58;;;;;;;0.10;0.10;;;;;;;;;;4989830;28;20069;-60
2023/06/29 08:58:24;;;;;;;0.10;0.10;;;;;;;;;;4989572;28;20054;-61
2023/06/29 09:00:52;;;;;;;0.10;0.10;;;;;;;;;;4989128;28;20047;-61
2023/06/29 09:03:18;;;;;;;0.10;0.10;;;;;;;;;;4989080;28;20054;-60
2023/06/29 09:05:47;;;;;;;0.10;0.10;;;;;;;;;;4988745;28;20450;-60
2023/06/29 09:08:13;;;;;;;0.63;0.35;;;;;;;;;;4989194;28;20383;-60
2023/06/29 09:10:39;;;;;;;0.10;0.10;;;;;;;;;;4988532;28;20057;-61
2023/06/29 09:13:05;;;;;;;0.10;0.10;;;;;;;;;;4987928;28;20262;-59
2023/06/29 09:15:31;;;;;;;0.10;0.10;;;;;;;;;;4989069;28;20101;-60
2023/06/29 09:17:57;;;;;;;0.10;0.10;;;;;;;;;;4987766;28;20120;-60
2023/06/29 09:20:25;;;;;;;0.10;0.10;;;;;;;;;;4988768;28;20054;-60
2023/06/29 09:22:51;;;;;;;0.10;0.10;;;;;;;;;;4987785;28;20100;-60
2023/06/29 09:25:17;;;;;;;0.10;0.10;;;;;;;;;;4988649;28;20053;-61
2023/06/29 09:28:02;;;;;;;0.10;0.10;;;;;;;;;;4987680;28;20495;-60
2023/06/29 09:30:33;;;;;;;0.10;0.10;;;;;;;;;;4988680;28;20050;-60
2023/06/29 09:33:03;;;;;;;0.10;0.10;;;;;;;;;;4989178;28;20105;-60
2023/06/29 09:35:29;;;;;;;0.10;0.10;;;;;;;;;;4989502;28;20089;-60
2023/06/29 09:37:55;;;;;;;0.10;0.10;;;;;;;;;;4987306;28;20054;-60
2023/06/29 09:40:20;;;;;;;0.10;0.10;;;;;;;;;;4987413;28;20487;-60
2023/06/29 09:42:46;;;;;;;0.10;0.10;;;;;;;;;;4989133;28;20082;-61
2023/06/29 09:45:12;;;;;;;0.10;0.10;;;;;;;;;;4988938;28;20093;-60
2023/06/29 09:47:41;;;;;;;0.10;0.10;;;;;;;;;;4988726;28;20077;-60
2023/06/29 09:50:17;;;;;;;0.10;0.10;;;;;;;;;;4988635;28;20229;-61
2023/06/29 09:52:45;;;;;;;0.10;0.10;;;;;;;;;;4988899;28;20498;-61
2023/06/29 09:55:10;;;;;;;0.10;0.10;;;;;;;;;;4986487;28;20576;-60
2023/06/29 09:57:37;;;;;;;0.10;0.10;;;;;;;;;;4989000;28;20101;-60
2023/06/29 10:00:09;;;;;;;0.10;0.10;;;;;;;;;;4988649;28;20078;-61
2023/06/29 10:02:35;;;;;;;0.10;0.10;;;;;;;;;;4988499;28;20050;-56
2023/06/29 10:05:00;;;;;;;0.10;0.10;;;;;;;;;;4988941;28;20410;-60
2023/06/29 10:07:26;;;;;;;0.10;0.10;;;;;;;;;;4988727;28;20491;-60
2023/06/29 10:09:53;;;;;;;0.10;0.10;;;;;;;;;;4988045;28;20537;-60
2023/06/29 10:12:22;;;;;;;0.10;0.10;;;;;;;;;;4988416;28;20050;-61
2023/06/29 10:14:48;;;;;;;0.10;0.10;;;;;;;;;;4988552;28;20077;-61
2023/06/29 10:17:17;;;;;;;0.10;0.10;;;;;;;;;;4988757;28;20483;-60
2023/06/29 10:19:43;;;;;;;0.10;0.10;;;;;;;;;;4988335;28;20050;-61
2023/06/29 10:22:10;;;;;;;0.10;0.10;;;;;;;;;;4988681;28;20491;-60
2023/06/29 10:24:38;;;;;;;0.10;0.10;;;;;;;;;;4988685;28;20494;-60
2023/06/29 10:27:04;;;;;;;0.10;0.10;;;;;;;;;;4988669;28;20471;-60
2023/06/29 10:29:29;;;;;;;0.10;0.10;;;;;;;;;;4988417;28;20069;-60
2023/06/29 10:31:57;;;;;;;0.10;0.10;;;;;;;;;;4987987;28;20054;-60
2023/06/29 10:34:24;;;;;;;0.10;0.10;;;;;;;;;;4988153;28;20081;-60
2023/06/29 10:36:50;;;;;;;0.10;0.10;;;;;;;;;;4986957;28;20074;-60
2023/06/29 10:39:35;;;;;;;0.10;0.10;;;;;;;;;;4987316;28;20598;-60
2023/06/29 10:42:01;;;;;;;0.10;0.10;;;;;;;;;;4986584;28;20093;-60
2023/06/29 10:44:33;;;;;;;0.10;0.10;;;;;;;;;;4987140;28;20431;-61
2023/06/29 10:46:59;;;;;;;0.10;0.10;;;;;;;;;;4986671;28;20046;-60
2023/06/29 10:49:25;;;;;;;0.10;0.10;;;;;;;;;;4987323;28;20057;-60
2023/06/29 10:51:53;;;;;;;0.10;0.10;;;;;;;;;;4987793;28;20057;-60
2023/06/29 10:54:22;;;;;;;0.10;0.10;;;;;;;;;;4988149;28;20113;-60
2023/06/29 10:56:55;;;;;;;0.10;0.10;;;;;;;;;;4986257;28;20050;-60
2023/06/29 10:59:21;;;;;;;0.10;0.10;;;;;;;;;;4987172;28;20093;-60
2023/06/29 11:01:47;;;;;;;0.10;0.10;;;;;;;;;;4986773;28;20054;-60
2023/06/29 11:04:12;;;;;;;0.10;0.10;;;;;;;;;;4988117;28;20558;-61
2023/06/29 11:06:38;;;;;;;0.20;0.20;;;;;;;;;;4987831;28;20046;-60
2023/06/29 11:09:12;;;;;;;0.10;0.10;;;;;;;;;;4987269;28;20046;-60
2023/06/29 11:11:38;;;;;;;0.10;0.10;;;;;;;;;;4987354;28;20061;-59
2023/06/29 11:14:03;;;;;;;0.10;0.10;;;;;;;;;;4988041;28;20081;-60
2023/06/29 11:16:31;;;;;;;0.10;0.10;;;;;;;;;;4987370;28;20081;-60
2023/06/29 11:18:56;;;;;;;0.10;0.10;;;;;;;;;;4988041;28;20612;-60
2023/06/29 11:21:24;;;;;;;0.10;0.10;;;;;;;;;;4987656;28;20322;-59
2023/06/29 11:23:50;;;;;;;0.00;0.00;;;;;;;;;;4987716;28;20101;-60
2023/06/29 11:26:16;;;;;;;0.10;0.10;;;;;;;;;;4986645;28;20055;-60
2023/06/29 11:28:42;;;;;;;0.10;0.10;;;;;;;;;;4987245;28;20483;-61
2023/06/29 11:31:07;;;;;;;0.10;0.10;;;;;;;;;;4987188;28;20422;-60
2023/06/29 11:33:33;;;;;;;0.10;0.10;;;;;;;;;;4987392;28;20477;-61
2023/06/29 11:36:36;;;;;;;0.10;0.10;;;;;;;;;;4986427;28;20065;-60
2023/06/29 11:39:03;;;;;;;0.10;0.10;;;;;;;;;;4986119;28;20490;-60
2023/06/29 11:41:29;;;;;;;0.10;0.10;;;;;;;;;;4986711;28;20521;-61
2023/06/29 11:43:55;;;;;;;0.10;0.10;;;;;;;;;;4986670;28;20042;-60
2023/06/29 11:46:21;;;;;;;0.10;0.10;;;;;;;;;;4986933;28;20434;-60
2023/06/29 11:48:54;;;;;;;0.10;0.10;;;;;;;;;;4986222;28;20046;-60
2023/06/29 11:51:19;;;;;;;0.10;0.10;;;;;;;;;;4986356;28;20054;-60
2023/06/29 11:53:45;;;;;;;0.10;0.10;;;;;;;;;;4987186;28;20074;-60
2023/06/29 11:56:22;;;;;;;0.10;0.10;;;;;;;;;;4987322;28;20057;-61
2023/06/29 11:58:48;;;;;;;0.10;0.10;;;;;;;;;;4986365;28;20054;-60
2023/06/29 12:01:14;;;;;;;0.10;0.10;;;;;;;;;;4986219;28;20491;-60
2023/06/29 12:03:40;;;;;;;0.10;0.10;;;;;;;;;;4985248;28;20616;-60
2023/06/29 12:06:05;;;;;;;0.10;0.10;;;;;;;;;;4986788;28;20484;-60
2023/06/29 12:08:38;;;;;;;0.10;0.10;;;;;;;;;;4986569;28;20046;-61
2023/06/29 12:11:04;;;;;;;0.10;0.10;;;;;;;;;;4986164;28;20058;-60
2023/06/29 12:13:30;;;;;;;0.10;0.10;;;;;;;;;;4984927;28;20163;-60
2023/06/29 12:16:00;;;;;;;0.10;0.10;;;;;;;;;;4986586;28;20210;-60
2023/06/29 12:18:28;;;;;;;0.10;0.10;;;;;;;;;;4987564;28;20057;-61
2023/06/29 12:21:00;;;;;;;0.10;0.10;;;;;;;;;;4989610;28;20054;-60
2023/06/29 12:23:26;;;;;;;0.10;0.10;;;;;;;;;;4988839;28;20274;-60
2023/06/29 12:25:52;;;;;;;0.10;0.10;;;;;;;;;;4989222;28;20554;-61
2023/06/29 12:28:18;;;;;;;0.10;0.10;;;;;;;;;;4988829;28;20053;-60
2023/06/29 12:30:44;;;;;;;0.10;0.10;;;;;;;;;;4989983;28;20479;-61
2023/06/29 12:33:11;;;;;;;0.10;0.10;;;;;;;;;;4990598;28;20545;-60
2023/06/29 12:35:37;;;;;;;0.10;0.10;;;;;;;;;;4990422;28;20046;-60
2023/06/29 12:38:02;;;;;;;0.10;0.10;;;;;;;;;;4989511;28;20054;-60
2023/06/29 12:40:28;;;;;;;0.10;0.10;;;;;;;;;;4987763;28;20206;-60
2023/06/29 12:42:54;;;;;;;0.10;0.10;;;;;;;;;;4989570;28;20057;-61
2023/06/29 12:45:19;;;;;;;0.10;0.10;;;;;;;;;;4989477;28;20054;-61
2023/06/29 12:47:45;;;;;;;0.10;0.10;;;;;;;;;;4989529;28;20050;-61
2023/06/29 12:50:10;;;;;;;0.10;0.10;;;;;;;;;;4989449;28;20085;-60
2023/06/29 12:52:36;;;;;;;0.10;0.10;;;;;;;;;;4989432;28;20245;-61
2023/06/29 12:55:02;;;;;;;0.10;0.10;;;;;;;;;;4987829;28;20431;-61
2023/06/29 12:57:28;;;;;;;0.10;0.10;;;;;;;;;;4989805;28;20042;-61
2023/06/29 12:59:54;;;;;;;0.10;0.10;;;;;;;;;;4988998;28;20046;-61
2023/06/29 13:02:20;;;;;;;0.10;0.10;;;;;;;;;;4989570;28;20065;-60
2023/06/29 13:04:46;;;;;;;0.10;0.10;;;;;;;;;;4988657;28;20133;-60
2023/06/29 13:07:13;;;;;;;0.10;0.10;;;;;;;;;;4988401;28;20046;-59
2023/06/29 13:09:38;;;;;;;0.10;0.10;;;;;;;;;;4987653;28;20554;-60
2023/06/29 13:12:04;;;;;;;0.10;0.10;;;;;;;;;;4989623;28;20060;-60
2023/06/29 13:14:30;;;;;;;0.10;0.10;;;;;;;;;;4989643;28;20475;-60
2023/06/29 13:16:56;;;;;;;0.10;0.10;;;;;;;;;;4989789;28;20081;-60
2023/06/29 13:19:23;;;;;;;0.10;0.10;;;;;;;;;;4988271;28;20185;-60
2023/06/29 13:21:48;;;;;;;0.10;0.10;;;;;;;;;;4987848;28;20601;-60
2023/06/29 13:24:14;;;;;;;0.10;0.10;;;;;;;;;;4989620;28;20061;-60
2023/06/29 13:26:39;;;;;;;0.10;0.10;;;;;;;;;;4989177;28;20043;-60
2023/06/29 13:29:05;;;;;;;0.10;0.10;;;;;;;;;;4987842;28;20634;-60
2023/06/29 13:31:30;;;;;;;0.10;0.10;;;;;;;;;;4989271;28;20049;-60
2023/06/29 13:33:56;;;;;;;0.10;0.10;;;;;;;;;;4989617;28;20042;-60
2023/06/29 13:36:22;;;;;;;0.10;0.10;;;;;;;;;;4989754;28;20091;-60
2023/06/29 13:38:47;;;;;;;0.10;0.10;;;;;;;;;;4988683;28;20392;-60
2023/06/29 13:41:13;;;;;;;0.10;0.10;;;;;;;;;;4988876;28;20058;-60
2023/06/29 13:43:38;;;;;;;0.10;0.10;;;;;;;;;;4989044;28;20211;-60
2023/06/29 13:46:04;;;;;;;0.10;0.10;;;;;;;;;;4989223;28;20089;-60
2023/06/29 13:48:29;;;;;;;0.10;0.10;;;;;;;;;;4988888;28;20057;-60
2023/06/29 13:50:55;;;;;;;0.00;0.00;;;;;;;;;;4988994;28;20575;-60
2023/06/29 13:53:21;;;;;;;0.10;0.10;;;;;;;;;;4989033;28;20056;-60
2023/06/29 13:55:46;;;;;;;0.10;0.10;;;;;;;;;;4988674;28;20047;-60
2023/06/29 13:58:13;;;;;;;0.10;0.10;;;;;;;;;;4988821;28;20046;-60
2023/06/29 14:00:39;;;;;;;0.10;0.10;;;;;;;;;;4986424;28;20418;-60
2023/06/29 14:03:05;;;;;;;0.10;0.10;;;;;;;;;;4988296;28;20085;-60
2023/06/29 14:05:31;;;;;;;0.10;0.10;;;;;;;;;;4989187;28;20077;-60
2023/06/29 14:07:56;;;;;;;0.10;0.10;;;;;;;;;;4987412;28;20050;-59
2023/06/29 14:10:23;;;;;;;0.10;0.10;;;;;;;;;;4987695;28;20078;-60
2023/06/29 14:12:48;;;;;;;0.10;0.10;;;;;;;;;;4988672;28;20057;-60
2023/06/29 14:15:14;;;;;;;0.10;0.10;;;;;;;;;;4988803;28;20047;-60
2023/06/29 14:17:39;;;;;;;0.10;0.10;;;;;;;;;;4988710;28;20513;-60
2023/06/29 14:20:05;;;;;;;0.10;0.10;;;;;;;;;;4988175;28;20061;-60
2023/06/29 14:22:32;;;;;;;0.10;0.10;;;;;;;;;;4988829;28;20510;-60
2023/06/29 14:24:57;;;;;;;0.10;0.10;;;;;;;;;;4988977;28;20080;-60
2023/06/29 14:27:23;;;;;;;0.10;0.10;;;;;;;;;;4988913;28;20050;-60
2023/06/29 14:29:48;;;;;;;0.10;0.10;;;;;;;;;;4987257;28;20359;-60
2023/06/29 14:32:14;;;;;;;0.10;0.10;;;;;;;;;;4988131;28;20483;-60
2023/06/29 14:34:40;;;;;;;0.10;0.10;;;;;;;;;;4988650;28;20316;-60
2023/06/29 14:37:05;;;;;;;0.10;0.10;;;;;;;;;;4988242;28;20054;-60